createdAt,value
2019-03-28T00:00:43.951Z,8.40
2019-03-28T00:03:12.397Z,8.13
2019-03-28T00:05:40.880Z,7.67
2019-03-28T00:08:12.298Z,8.27
2019-03-28T00:10:39.442Z,8.13
2019-03-28T00:13:07.873Z,8.20
2019-03-28T00:15:36.362Z,7.67
2019-03-28T00:18:04.965Z,8.33
2019-03-28T00:20:33.419Z,8.80
2019-03-28T00:23:05.076Z,8.27
2019-03-28T00:25:33.555Z,8.60
2019-03-28T00:28:02.001Z,8.30
2019-03-28T00:30:30.416Z,7.70
2019-03-28T00:32:58.859Z,7.70
2019-03-28T00:35:27.363Z,7.87
2019-03-28T00:37:55.882Z,7.63
2019-03-28T00:40:24.446Z,7.13
2019-03-28T00:42:52.862Z,8.10
2019-03-28T00:45:21.307Z,7.70
2019-03-28T00:47:49.729Z,8.57
2019-03-28T00:50:18.186Z,7.63
2019-03-28T00:52:46.688Z,8.00
2019-03-28T00:55:15.233Z,9.50
2019-03-28T00:57:44.107Z,8.20
2019-03-28T01:00:12.895Z,8.60
2019-03-28T01:02:41.370Z,9.40
2019-03-28T01:05:10.055Z,8.40
2019-03-28T01:07:38.466Z,8.43
2019-03-28T01:10:07.242Z,8.00
2019-03-28T01:12:35.729Z,8.77
2019-03-28T01:15:07.674Z,8.10
2019-03-28T01:17:36.085Z,8.20
2019-03-28T01:20:07.335Z,8.30
2019-03-28T01:22:35.753Z,8.00
2019-03-28T01:25:04.621Z,8.20
2019-03-28T01:27:33.101Z,7.93
2019-03-28T01:30:01.542Z,9.13
2019-03-28T01:32:30.036Z,8.67
2019-03-28T01:34:58.457Z,7.63
2019-03-28T01:37:26.918Z,8.63
2019-03-28T01:39:55.399Z,8.33
2019-03-28T01:42:23.895Z,7.90
2019-03-28T01:44:52.360Z,9.07
2019-03-28T01:47:20.820Z,8.20
2019-03-28T01:49:49.306Z,8.93
2019-03-28T01:52:18.615Z,7.33
2019-03-28T01:54:47.093Z,7.83
2019-03-28T01:57:15.517Z,7.63
2019-03-28T01:59:43.945Z,8.60
2019-03-28T02:02:12.385Z,7.10
2019-03-28T02:04:40.808Z,8.10
2019-03-28T02:07:09.265Z,8.80
2019-03-28T02:09:37.684Z,8.57
2019-03-28T02:12:06.128Z,7.87
2019-03-28T02:14:34.537Z,8.23
2019-03-28T02:17:02.977Z,8.47
2019-03-28T02:19:31.631Z,7.70
2019-03-28T02:22:00.064Z,8.50
2019-03-28T02:24:28.476Z,8.37
2019-03-28T02:26:56.913Z,8.63
2019-03-28T02:29:25.334Z,8.80
2019-03-28T02:31:53.803Z,8.40
2019-03-28T02:34:22.229Z,7.80
2019-03-28T02:36:50.726Z,7.63
2019-03-28T02:39:19.162Z,8.10
2019-03-28T02:41:47.600Z,8.07
2019-03-28T02:44:16.114Z,8.40
2019-03-28T02:46:44.533Z,8.20
2019-03-28T02:49:13.038Z,7.97
2019-03-28T02:51:41.469Z,8.33
2019-03-28T02:54:09.906Z,9.00
2019-03-28T02:56:38.379Z,7.80
2019-03-28T02:59:06.818Z,8.57
2019-03-28T03:01:35.230Z,7.77
2019-03-28T03:04:03.737Z,8.40
2019-03-28T03:06:32.218Z,9.10
2019-03-28T03:09:00.673Z,9.10
2019-03-28T03:11:29.086Z,9.53
2019-03-28T03:13:57.520Z,7.90
2019-03-28T03:16:25.966Z,8.10
2019-03-28T03:18:54.403Z,8.60
2019-03-28T03:21:22.821Z,8.30
2019-03-28T03:23:51.271Z,7.10
2019-03-28T03:26:19.838Z,9.10
2019-03-28T03:28:48.306Z,7.53
2019-03-28T03:31:20.842Z,8.60
2019-03-28T03:33:46.977Z,9.10
2019-03-28T03:36:15.415Z,8.97
2019-03-28T03:38:43.838Z,8.83
2019-03-28T03:41:12.300Z,8.83
2019-03-28T03:43:40.834Z,8.40
2019-03-28T03:46:09.393Z,8.20
2019-03-28T03:48:38.673Z,9.03
2019-03-28T03:51:07.238Z,8.67
2019-03-28T03:53:35.655Z,8.20
2019-03-28T03:56:04.227Z,8.67
2019-03-28T03:58:32.641Z,8.63
2019-03-28T04:01:01.097Z,9.40
2019-03-28T04:03:29.786Z,8.13
2019-03-28T04:05:58.208Z,8.50
2019-03-28T04:08:27.163Z,8.53
2019-03-28T04:10:55.911Z,8.20
2019-03-28T04:13:24.322Z,9.03
2019-03-28T04:15:52.759Z,8.73
2019-03-28T04:18:22.270Z,8.63
2019-03-28T04:20:51.651Z,8.17
2019-03-28T04:23:20.372Z,8.37
2019-03-28T04:25:48.870Z,8.73
2019-03-28T04:28:30.736Z,7.50
2019-03-28T04:30:47.441Z,8.10
2019-03-28T04:33:15.915Z,7.60
2019-03-28T04:35:44.415Z,8.00
2019-03-28T04:38:12.943Z,8.33
2019-03-28T04:40:41.397Z,7.60
2019-03-28T04:43:09.820Z,9.03
2019-03-28T04:45:38.244Z,8.80
2019-03-28T04:48:06.714Z,8.07
2019-03-28T04:50:35.133Z,8.03
2019-03-28T04:53:03.650Z,7.97
2019-03-28T04:55:32.205Z,9.00
2019-03-28T04:58:00.644Z,8.07
2019-03-28T05:00:29.137Z,7.67
2019-03-28T05:02:57.815Z,9.73
2019-03-28T05:05:26.349Z,7.10
2019-03-28T05:07:54.785Z,8.40
2019-03-28T05:10:23.209Z,7.73
2019-03-28T05:12:51.712Z,8.63
2019-03-28T05:15:20.593Z,8.13
2019-03-28T05:17:49.126Z,7.77
2019-03-28T05:20:17.713Z,7.97
2019-03-28T05:22:46.159Z,7.67
2019-03-28T05:25:14.649Z,8.73
2019-03-28T05:27:43.157Z,8.30
2019-03-28T05:30:12.036Z,8.37
2019-03-28T05:32:40.457Z,8.73
2019-03-28T05:35:09.229Z,8.60
2019-03-28T05:37:37.670Z,8.67
2019-03-28T05:40:07.432Z,9.10
2019-03-28T05:42:35.901Z,9.10
2019-03-28T05:45:05.914Z,8.97
2019-03-28T05:47:34.365Z,8.70
2019-03-28T05:50:02.851Z,8.23
2019-03-28T05:52:31.293Z,9.90
2019-03-28T05:54:59.796Z,10.17
2019-03-28T05:57:28.208Z,8.50
2019-03-28T05:59:56.640Z,7.83
2019-03-28T06:02:25.221Z,7.93
2019-03-28T06:04:53.714Z,7.47
2019-03-28T06:07:22.170Z,8.60
2019-03-28T06:09:50.610Z,9.20
2019-03-28T06:12:19.339Z,8.87
2019-03-28T06:14:47.822Z,8.63
2019-03-28T06:17:16.250Z,9.23
2019-03-28T06:19:44.702Z,8.80
2019-03-28T06:22:13.494Z,8.77
2019-03-28T06:24:42.161Z,10.03
2019-03-28T06:27:10.603Z,10.10
2019-03-28T06:29:39.033Z,9.50
2019-03-28T06:32:07.455Z,8.87
2019-03-28T06:34:35.896Z,8.60
2019-03-28T06:37:04.309Z,8.23
2019-03-28T06:39:32.748Z,9.40
2019-03-28T06:42:01.157Z,8.90
2019-03-28T06:44:29.657Z,9.07
2019-03-28T06:46:58.119Z,9.00
2019-03-28T06:49:26.525Z,9.80
2019-03-28T06:51:54.977Z,9.43
2019-03-28T06:54:24.459Z,9.90
2019-03-28T06:56:52.936Z,9.70
2019-03-28T06:59:21.424Z,10.03
2019-03-28T07:01:49.853Z,9.00
2019-03-28T07:04:18.299Z,10.27
2019-03-28T07:06:46.744Z,11.43
2019-03-28T07:09:15.241Z,8.70
2019-03-28T07:11:43.741Z,10.00
2019-03-28T07:14:12.148Z,10.00
2019-03-28T07:16:40.584Z,10.37
2019-03-28T07:19:09.014Z,10.17
2019-03-28T07:21:37.540Z,10.90
2019-03-28T07:24:06.021Z,9.70
2019-03-28T07:26:34.483Z,10.83
2019-03-28T07:29:03.011Z,10.20
2019-03-28T07:31:31.437Z,10.67
2019-03-28T07:33:59.894Z,10.23
2019-03-28T07:36:28.333Z,10.73
2019-03-28T07:38:56.778Z,9.93
2019-03-28T07:41:25.232Z,10.10
2019-03-28T07:43:53.651Z,10.40
2019-03-28T07:46:22.073Z,10.13
2019-03-28T07:48:50.504Z,10.00
2019-03-28T07:51:18.995Z,10.50
2019-03-28T07:53:47.483Z,10.30
2019-03-28T07:56:16.099Z,11.67
2019-03-28T07:58:44.541Z,10.73
2019-03-28T08:01:12.983Z,10.70
2019-03-28T08:03:41.416Z,10.40
2019-03-28T08:06:12.597Z,10.70
2019-03-28T08:08:40.793Z,9.73
2019-03-28T08:11:10.128Z,9.37
2019-03-28T08:13:38.588Z,10.07
2019-03-28T08:16:07.069Z,10.43
2019-03-28T08:18:35.629Z,9.70
2019-03-28T08:21:04.223Z,9.87
2019-03-28T08:23:35.332Z,10.13
2019-03-28T08:26:02.922Z,10.47
2019-03-28T08:28:31.369Z,9.63
2019-03-28T08:30:59.860Z,10.93
2019-03-28T08:33:28.405Z,10.77
2019-03-28T08:35:57.917Z,10.07
2019-03-28T08:38:26.996Z,9.37
2019-03-28T08:40:55.400Z,10.90
2019-03-28T08:43:23.847Z,10.40
2019-03-28T08:45:52.253Z,10.10
2019-03-28T08:48:20.689Z,10.17
2019-03-28T08:50:49.204Z,10.83
2019-03-28T08:53:17.650Z,11.57
2019-03-28T08:55:46.150Z,10.33
2019-03-28T08:58:14.653Z,11.10
2019-03-28T09:00:51.552Z,10.67
2019-03-28T09:03:13.358Z,10.00
2019-03-28T09:05:41.868Z,9.67
2019-03-28T09:08:10.271Z,9.43
2019-03-28T09:10:38.708Z,10.30
2019-03-28T09:13:07.194Z,9.30
2019-03-28T09:15:43.441Z,9.00
2019-03-28T09:18:05.870Z,9.50
2019-03-28T09:20:34.317Z,9.80
2019-03-28T09:23:02.733Z,9.77
2019-03-28T09:25:31.180Z,9.93
2019-03-28T09:27:59.604Z,9.20
2019-03-28T09:30:47.548Z,9.47
2019-03-28T09:33:06.510Z,9.87
2019-03-28T09:35:35.131Z,7.20
2019-03-28T09:38:03.946Z,8.13
2019-03-28T09:40:32.403Z,7.87
2019-03-28T09:43:00.906Z,8.07
2019-03-28T09:45:30.181Z,7.40
2019-03-28T09:47:58.740Z,7.93
2019-03-28T09:50:27.148Z,9.23
2019-03-28T09:52:55.584Z,8.60
2019-03-28T09:55:24.018Z,7.40
2019-03-28T09:57:52.452Z,8.17
2019-03-28T10:00:21.412Z,6.60
2019-03-28T10:02:49.933Z,8.20
2019-03-28T10:05:18.349Z,7.27
2019-03-28T10:07:46.814Z,7.37
2019-03-28T10:10:15.354Z,7.47
2019-03-28T10:12:44.169Z,7.80
2019-03-28T10:15:13.056Z,6.80
2019-03-28T10:17:42.563Z,7.60
2019-03-28T10:20:11.384Z,7.27
2019-03-28T10:22:39.936Z,7.03
2019-03-28T10:25:08.692Z,7.40
2019-03-28T10:27:37.405Z,8.60
2019-03-28T10:30:08.241Z,7.23
2019-03-28T10:32:36.870Z,7.20
2019-03-28T10:35:07.084Z,8.20
2019-03-28T10:37:35.745Z,7.37
2019-03-28T10:40:06.922Z,7.30
2019-03-28T10:42:35.360Z,8.03
2019-03-28T10:45:05.842Z,8.30
2019-03-28T10:47:34.285Z,6.70
2019-03-28T10:50:04.254Z,8.50
2019-03-28T10:52:32.878Z,8.47
2019-03-28T10:55:01.361Z,8.00
2019-03-28T10:57:31.300Z,8.03
2019-03-28T10:59:59.918Z,9.33
2019-03-28T11:02:28.877Z,8.60
2019-03-28T11:04:57.630Z,9.10
2019-03-28T11:07:26.089Z,7.90
2019-03-28T11:09:54.521Z,8.43
2019-03-28T11:12:23.023Z,7.63
2019-03-28T11:14:51.532Z,7.97
2019-03-28T11:17:20.021Z,6.63
2019-03-28T11:19:48.457Z,6.50
2019-03-28T11:22:16.858Z,7.77
2019-03-28T11:24:46.472Z,6.60
2019-03-28T11:27:15.101Z,6.90
2019-03-28T11:29:43.555Z,6.30
2019-03-28T11:32:12.022Z,5.20
2019-03-28T11:34:40.890Z,4.47
2019-03-28T11:37:24.969Z,4.67
2019-03-28T11:39:40.333Z,4.50
2019-03-28T11:42:08.891Z,4.17
2019-03-28T11:44:37.442Z,4.17
2019-03-28T11:47:05.886Z,4.47
2019-03-28T11:49:34.335Z,4.03
2019-03-28T11:52:02.769Z,4.33
2019-03-28T11:54:31.176Z,4.47
2019-03-28T11:56:59.793Z,4.47
2019-03-28T11:59:28.239Z,4.23
2019-03-28T12:02:00.577Z,3.97
2019-03-28T12:04:26.898Z,4.23
2019-03-28T12:06:55.369Z,3.50
2019-03-28T12:09:23.790Z,4.70
2019-03-28T12:11:53.045Z,3.50
2019-03-28T12:14:21.642Z,3.30
2019-03-28T12:16:50.071Z,4.87
2019-03-28T12:19:18.485Z,4.20
2019-03-28T12:21:46.932Z,4.10
2019-03-28T12:24:15.345Z,4.33
2019-03-28T12:26:43.845Z,4.17
2019-03-28T12:29:12.265Z,4.77
2019-03-28T12:31:40.772Z,4.40
2019-03-28T12:34:09.200Z,4.30
2019-03-28T12:36:37.722Z,3.40
2019-03-28T12:39:06.868Z,4.80
2019-03-28T12:41:35.295Z,4.20
2019-03-28T12:44:03.805Z,5.17
2019-03-28T12:46:32.236Z,4.60
2019-03-28T12:49:00.714Z,5.23
2019-03-28T12:51:29.156Z,4.40
2019-03-28T12:53:57.577Z,5.00
2019-03-28T12:56:26.454Z,4.17
2019-03-28T12:58:54.988Z,4.77
2019-03-28T13:01:24.493Z,4.80
2019-03-28T13:03:53.043Z,4.80
2019-03-28T13:06:21.548Z,4.33
2019-03-28T13:08:49.955Z,4.33
2019-03-28T13:11:19.560Z,4.23
2019-03-28T13:13:48.113Z,4.17
2019-03-28T13:16:16.553Z,4.77
2019-03-28T13:18:44.972Z,4.47
2019-03-28T13:21:14.234Z,4.97
2019-03-28T13:23:42.827Z,4.63
2019-03-28T13:26:11.287Z,6.53
2019-03-28T13:28:39.732Z,5.57
2019-03-28T13:31:08.160Z,6.03
2019-03-28T13:33:36.641Z,5.23
2019-03-28T13:36:05.237Z,5.63
2019-03-28T13:38:33.710Z,6.13
2019-03-28T13:41:02.125Z,5.73
2019-03-28T13:43:30.770Z,7.77
2019-03-28T13:45:59.389Z,6.27
2019-03-28T13:48:27.903Z,5.80
2019-03-28T13:50:56.325Z,6.40
2019-03-28T13:53:38.272Z,6.40
2019-03-28T13:55:55.044Z,6.77
2019-03-28T13:58:23.540Z,5.90
2019-03-28T14:00:54.385Z,5.90
2019-03-28T14:03:22.127Z,6.20
2019-03-28T14:05:50.541Z,6.00
2019-03-28T14:08:18.987Z,5.60
2019-03-28T14:10:47.560Z,6.63
2019-03-28T14:13:16.133Z,6.03
2019-03-28T14:15:44.562Z,5.57
2019-03-28T14:18:13.048Z,5.87
2019-03-28T14:20:41.608Z,5.83
2019-03-28T14:23:10.062Z,6.70
2019-03-28T14:25:38.483Z,5.33
2019-03-28T14:28:06.923Z,5.93
2019-03-28T14:30:35.365Z,4.90
2019-03-28T14:33:11.243Z,5.03
2019-03-28T14:35:34.044Z,4.80
2019-03-28T14:38:02.534Z,4.63
2019-03-28T14:40:31.066Z,4.60
2019-03-28T14:42:59.477Z,4.57
2019-03-28T14:45:27.947Z,5.37
2019-03-28T14:47:56.420Z,6.10
2019-03-28T14:50:38.843Z,5.17
2019-03-28T14:53:07.345Z,5.30
2019-03-28T14:55:35.925Z,6.07
2019-03-28T14:58:05.282Z,5.97
2019-03-28T15:00:47.950Z,6.60
2019-03-28T15:03:25.879Z,6.53
2019-03-28T15:05:47.029Z,6.70
2019-03-28T15:08:15.607Z,6.30
2019-03-28T15:10:44.104Z,6.27
2019-03-28T15:13:12.608Z,5.40
2019-03-28T15:15:41.128Z,5.60
2019-03-28T15:18:09.568Z,6.17
2019-03-28T15:20:38.004Z,6.57
2019-03-28T15:23:06.435Z,6.80
2019-03-28T15:25:34.905Z,5.90
2019-03-28T15:28:03.327Z,5.40
2019-03-28T15:30:31.770Z,5.23
2019-03-28T15:33:00.201Z,5.67
2019-03-28T15:35:28.613Z,6.40
2019-03-28T15:37:57.053Z,6.10
2019-03-28T15:40:25.469Z,5.80
2019-03-28T15:42:53.918Z,5.60
2019-03-28T15:45:22.332Z,5.90
2019-03-28T15:47:52.197Z,6.07
2019-03-28T15:50:20.804Z,5.30
2019-03-28T15:52:49.260Z,5.40
2019-03-28T15:55:17.662Z,5.93
2019-03-28T15:57:46.177Z,5.30
2019-03-28T16:00:15.250Z,6.27
2019-03-28T16:02:44.566Z,4.60
2019-03-28T16:05:13.096Z,4.77
2019-03-28T16:07:41.703Z,4.93
2019-03-28T16:10:14.492Z,4.90
2019-03-28T16:12:41.809Z,4.87
2019-03-28T16:15:10.461Z,5.03
2019-03-28T16:17:38.939Z,5.47
2019-03-28T16:20:07.697Z,5.10
2019-03-28T16:22:36.132Z,5.80
2019-03-28T16:25:06.724Z,4.70
2019-03-28T16:27:35.161Z,4.40
2019-03-28T16:30:06.176Z,4.17
2019-03-28T16:32:34.654Z,3.47
2019-03-28T16:35:03.933Z,3.60
2019-03-28T16:37:32.363Z,3.70
2019-03-28T16:40:00.842Z,3.23
2019-03-28T16:42:29.342Z,2.77
2019-03-28T16:44:57.777Z,3.10
2019-03-28T16:47:26.270Z,3.10
2019-03-28T16:49:54.705Z,3.20
2019-03-28T16:52:23.147Z,2.70
2019-03-28T16:54:51.585Z,2.40
2019-03-28T16:57:20.016Z,2.23
2019-03-28T16:59:48.525Z,2.50
2019-03-28T17:02:17.033Z,2.20
2019-03-28T17:04:45.524Z,2.57
2019-03-28T17:07:14.782Z,2.40
2019-03-28T17:09:43.369Z,2.87
2019-03-28T17:12:11.893Z,3.33
2019-03-28T17:14:40.314Z,3.10
2019-03-28T17:17:08.832Z,3.30
2019-03-28T17:19:37.548Z,3.80
2019-03-28T17:22:09.339Z,3.40
2019-03-28T17:24:36.211Z,3.50
2019-03-28T17:27:04.701Z,4.30
2019-03-28T17:29:33.116Z,4.40
2019-03-28T17:32:01.568Z,4.80
2019-03-28T17:34:35.047Z,5.50
2019-03-28T17:37:00.149Z,4.87
2019-03-28T17:39:28.671Z,4.30
2019-03-28T17:41:57.728Z,4.33
2019-03-28T17:44:26.371Z,4.50
2019-03-28T17:46:54.843Z,5.03
2019-03-28T17:49:23.320Z,4.83
2019-03-28T17:51:51.808Z,4.50
2019-03-28T17:54:20.322Z,4.97
2019-03-28T17:57:08.128Z,4.87
2019-03-28T17:59:36.548Z,5.27
2019-03-28T18:02:05.242Z,4.80
2019-03-28T18:04:47.185Z,5.00
2019-03-28T18:07:03.844Z,5.17
2019-03-28T18:09:32.270Z,5.00
2019-03-28T18:12:00.785Z,5.17
2019-03-28T18:14:29.243Z,5.47
2019-03-28T18:16:57.682Z,5.27
2019-03-28T18:19:26.207Z,5.57
2019-03-28T18:22:03.278Z,4.93
2019-03-28T18:24:24.808Z,5.40
2019-03-28T18:26:53.289Z,6.20
2019-03-28T18:29:21.817Z,6.50
2019-03-28T18:31:52.462Z,6.00
2019-03-28T18:34:20.482Z,5.13
2019-03-28T18:36:48.984Z,5.10
2019-03-28T18:39:17.498Z,4.20
2019-03-28T18:41:46.056Z,5.10
2019-03-28T18:44:16.072Z,4.30
2019-03-28T18:46:44.590Z,4.33
2019-03-28T18:49:13.167Z,4.27
2019-03-28T18:51:41.605Z,4.80
2019-03-28T18:54:10.166Z,4.10
2019-03-28T18:56:38.582Z,4.63
2019-03-28T18:59:07.149Z,4.47
2019-03-28T19:01:35.658Z,3.80
2019-03-28T19:04:04.123Z,4.77
2019-03-28T19:06:32.665Z,4.60
2019-03-28T19:09:01.231Z,5.00
2019-03-28T19:11:29.737Z,4.70
2019-03-28T19:13:58.379Z,5.33
2019-03-28T19:16:26.858Z,4.30
2019-03-28T19:18:55.327Z,4.40
2019-03-28T19:21:23.773Z,4.90
2019-03-28T19:23:52.322Z,5.03
2019-03-28T19:26:20.766Z,5.30
2019-03-28T19:28:49.267Z,5.20
2019-03-28T19:31:17.858Z,5.57
2019-03-28T19:33:46.364Z,5.20
2019-03-28T19:36:15.051Z,5.60
2019-03-28T19:38:43.674Z,5.30
2019-03-28T19:41:12.197Z,5.40
2019-03-28T19:43:41.127Z,5.17
2019-03-28T19:46:09.581Z,5.43
2019-03-28T19:48:38.147Z,5.47
2019-03-28T19:51:07.837Z,5.17
2019-03-28T19:53:36.469Z,5.17
2019-03-28T19:56:04.945Z,5.27
2019-03-28T19:58:35.131Z,5.00
2019-03-28T20:01:03.861Z,5.63
2019-03-28T20:03:32.311Z,5.10
2019-03-28T20:06:00.828Z,6.23
2019-03-28T20:08:29.500Z,5.50
2019-03-28T20:10:58.090Z,5.70
2019-03-28T20:13:26.586Z,5.17
2019-03-28T20:15:55.213Z,5.13
2019-03-28T20:18:23.629Z,4.63
2019-03-28T20:20:55.452Z,4.83
2019-03-28T20:23:22.781Z,5.60
2019-03-28T20:25:51.414Z,5.50
2019-03-28T20:28:19.964Z,5.13
2019-03-28T20:30:48.505Z,6.07
2019-03-28T20:33:17.081Z,5.90
2019-03-28T20:35:45.588Z,5.73
2019-03-28T20:38:14.122Z,5.10
2019-03-28T20:40:43.542Z,5.17
2019-03-28T20:43:12.195Z,5.83
2019-03-28T20:45:40.711Z,4.80
2019-03-28T20:48:09.222Z,5.10
2019-03-28T20:50:37.809Z,5.40
2019-03-28T20:53:06.333Z,4.90
2019-03-28T20:55:34.780Z,4.77
2019-03-28T20:58:03.311Z,5.03
2019-03-28T21:00:38.876Z,4.40
2019-03-28T21:03:07.583Z,4.77
2019-03-28T21:05:36.204Z,5.00
2019-03-28T21:08:04.974Z,4.53
2019-03-28T21:10:33.646Z,5.97
2019-03-28T21:13:02.163Z,5.10
2019-03-28T21:15:30.679Z,4.10
2019-03-28T21:17:59.083Z,5.03
2019-03-28T21:20:27.538Z,4.77
2019-03-28T21:22:56.141Z,5.17
2019-03-28T21:25:24.588Z,5.43
2019-03-28T21:27:53.119Z,5.07
2019-03-28T21:30:21.689Z,5.30
2019-03-28T21:32:55.750Z,4.77
2019-03-28T21:35:20.390Z,4.57
2019-03-28T21:37:48.905Z,5.00
2019-03-28T21:40:17.520Z,4.73
2019-03-28T21:42:46.064Z,5.57
2019-03-28T21:45:15.085Z,4.57
2019-03-28T21:47:43.656Z,4.90
2019-03-28T21:50:12.215Z,4.10
2019-03-28T21:52:40.956Z,3.87
2019-03-28T21:55:11.510Z,4.60
2019-03-28T21:57:42.482Z,4.40
2019-03-28T22:00:10.663Z,5.07
2019-03-28T22:02:39.229Z,4.63
2019-03-28T22:05:07.823Z,4.10
2019-03-28T22:07:36.347Z,5.03
2019-03-28T22:10:08.940Z,5.33
2019-03-28T22:12:37.669Z,4.40
2019-03-28T22:15:07.741Z,4.80
2019-03-28T22:17:36.793Z,5.13
2019-03-28T22:20:06.681Z,4.83
2019-03-28T22:22:35.148Z,5.20
2019-03-28T22:25:04.261Z,5.37
2019-03-28T22:27:32.794Z,5.10
2019-03-28T22:30:01.281Z,5.80
2019-03-28T22:32:29.726Z,4.80
2019-03-28T22:34:58.154Z,5.30
2019-03-28T22:37:26.603Z,5.53
2019-03-28T22:39:55.047Z,6.20
2019-03-28T22:42:23.504Z,6.10
2019-03-28T22:44:51.940Z,6.50
2019-03-28T22:47:20.457Z,5.43
2019-03-28T22:49:48.959Z,6.37
2019-03-28T22:52:17.502Z,6.37
2019-03-28T22:54:45.976Z,6.53
2019-03-28T22:57:15.136Z,5.57
2019-03-28T22:59:44.143Z,5.60
2019-03-28T23:02:12.745Z,6.63
2019-03-28T23:04:41.244Z,5.97
2019-03-28T23:07:11.176Z,6.00
2019-03-28T23:09:39.833Z,6.53
2019-03-28T23:12:08.950Z,6.53
2019-03-28T23:14:38.920Z,7.53
2019-03-28T23:17:07.455Z,6.80
2019-03-28T23:19:36.084Z,6.20
2019-03-28T23:22:04.597Z,7.30
2019-03-28T23:24:33.048Z,7.00
2019-03-28T23:27:01.554Z,6.60
2019-03-28T23:29:29.981Z,6.57
2019-03-28T23:31:58.418Z,6.00
2019-03-28T23:34:26.859Z,7.10
2019-03-28T23:36:55.277Z,6.97
2019-03-28T23:39:23.697Z,6.80
2019-03-28T23:41:52.130Z,6.70
2019-03-28T23:44:23.294Z,6.97
2019-03-28T23:46:51.729Z,6.43
2019-03-28T23:49:20.167Z,6.00
2019-03-28T23:51:48.819Z,6.90
2019-03-28T23:54:17.265Z,6.23
2019-03-28T23:56:45.752Z,7.13
2019-03-28T23:59:14.187Z,7.67
